Terminal Aerodrome Forecast
Issued by NWS Louisville, KY

Home | Current Version | Previous Version | Text Only | Print | Product List | Glossary On
Versions: 1 2 3 4 5 6 7 8 9 10 11 12 13 14 15 16
000
FTUS43 KLMK 262300
TAFLEX
TAF
KLEX 262320Z 2700/2724 33006KT 5SM -SHRA BR OVC025
     FM270400 35006KT P6SM SCT030
     FM271500 34008KT P6SM BKN035=

USA.gov is the U.S. government's official web portal to all federal, state and local government web resources and services.